createdAt,value
2018-12-03T00:00:25.894Z,4.57
2018-12-03T00:02:57.761Z,4.17
2018-12-03T00:05:26.311Z,4.13
2018-12-03T00:07:54.778Z,2.77
2018-12-03T00:10:23.236Z,2.80
2018-12-03T00:12:53.649Z,2.73
2018-12-03T00:15:22.098Z,2.10
2018-12-03T00:17:50.535Z,2.13
2018-12-03T00:20:19.035Z,2.10
2018-12-03T00:22:47.446Z,2.10
2018-12-03T00:25:15.875Z,1.77
2018-12-03T00:27:51.475Z,1.40
2018-12-03T00:30:20.267Z,2.40
2018-12-03T00:32:48.788Z,1.47
2018-12-03T00:35:17.229Z,1.30
2018-12-03T00:41:43.090Z,2.60
2018-12-03T00:44:13.514Z,2.20
2018-12-03T00:47:06.807Z,1.80
2018-12-03T00:49:36.878Z,2.40
2018-12-03T00:52:08.495Z,2.13
2018-12-03T00:54:41.571Z,1.73
2018-12-03T00:57:12.053Z,1.63
2018-12-03T00:59:42.731Z,1.90
2018-12-03T01:02:28.304Z,1.70
2018-12-03T01:04:59.461Z,1.70
2018-12-03T01:07:30.028Z,1.60
2018-12-03T01:10:00.446Z,1.67
2018-12-03T01:12:30.922Z,1.87
2018-12-03T01:15:02.044Z,2.27
2018-12-03T01:17:32.743Z,1.80
2018-12-03T01:20:03.012Z,1.87
2018-12-03T01:22:33.532Z,1.90
2018-12-03T01:25:04.622Z,1.80
2018-12-03T01:27:35.129Z,2.03
2018-12-03T01:30:05.832Z,1.83
2018-12-03T01:32:36.935Z,1.83
2018-12-03T01:35:11.279Z,2.27
2018-12-03T01:37:42.398Z,2.03
2018-12-03T01:40:16.011Z,1.87
2018-12-03T01:42:47.629Z,2.10
2018-12-03T01:45:19.309Z,2.10
2018-12-03T01:47:50.230Z,2.13
2018-12-03T01:50:21.401Z,2.30
2018-12-03T01:52:52.609Z,2.07
2018-12-03T01:55:23.775Z,2.10
2018-12-03T01:57:54.681Z,2.37
2018-12-03T02:00:25.631Z,2.57
2018-12-03T02:02:56.368Z,1.93
2018-12-03T02:05:27.336Z,2.57
2018-12-03T02:07:58.152Z,2.10
2018-12-03T02:10:29.097Z,2.30
2018-12-03T02:12:59.550Z,2.57
2018-12-03T02:15:30.278Z,2.80
2018-12-03T02:18:00.505Z,2.70
2018-12-03T02:20:31.297Z,2.77
2018-12-03T02:23:02.467Z,2.40
2018-12-03T02:25:33.594Z,2.50
2018-12-03T02:28:04.109Z,3.30
2018-12-03T02:30:34.542Z,3.30
2018-12-03T02:33:05.698Z,3.20
2018-12-03T02:35:36.432Z,2.40
2018-12-03T02:38:06.288Z,3.07
2018-12-03T02:40:37.558Z,2.73
2018-12-03T02:43:08.674Z,2.77
2018-12-03T02:45:39.100Z,2.50
2018-12-03T02:48:09.653Z,2.80
2018-12-03T02:50:40.063Z,3.20
2018-12-03T02:53:11.538Z,3.30
2018-12-03T02:55:42.399Z,3.00
2018-12-03T02:58:13.345Z,3.03
2018-12-03T03:00:43.985Z,3.20
2018-12-03T03:03:14.816Z,3.60
2018-12-03T03:05:46.161Z,2.83
2018-12-03T03:08:17.415Z,3.60
2018-12-03T03:10:47.935Z,3.80
2018-12-03T03:13:18.518Z,3.10
2018-12-03T03:15:50.375Z,3.90
2018-12-03T03:18:20.508Z,3.07
2018-12-03T03:20:53.536Z,3.80
2018-12-03T03:23:24.740Z,4.37
2018-12-03T03:25:55.525Z,3.50
2018-12-03T03:28:26.756Z,3.70
2018-12-03T03:30:57.960Z,3.80
2018-12-03T03:33:28.884Z,4.23
2018-12-03T03:35:58.966Z,3.67
2018-12-03T03:38:29.752Z,3.40
2018-12-03T03:41:01.501Z,3.67
2018-12-03T03:43:32.377Z,3.10
2018-12-03T03:46:03.177Z,3.27
2018-12-03T03:48:33.885Z,3.93
2018-12-03T03:51:04.742Z,3.13
2018-12-03T03:53:35.139Z,3.73
2018-12-03T03:56:06.046Z,4.20
2018-12-03T03:58:36.567Z,3.53
2018-12-03T04:01:06.941Z,3.87
2018-12-03T04:03:38.704Z,3.90
2018-12-03T04:06:08.883Z,3.60
2018-12-03T04:08:40.095Z,2.40
2018-12-03T04:11:10.445Z,2.97
2018-12-03T04:13:40.885Z,2.43
2018-12-03T04:16:11.001Z,4.00
2018-12-03T04:18:41.549Z,2.60
2018-12-03T04:21:12.359Z,2.40
2018-12-03T04:23:43.087Z,1.97
2018-12-03T04:26:13.610Z,2.13
2018-12-03T04:28:44.214Z,2.33
2018-12-03T04:31:15.198Z,2.07
2018-12-03T04:33:47.828Z,2.23
2018-12-03T04:36:18.691Z,1.90
2018-12-03T04:38:49.798Z,2.40
2018-12-03T04:41:21.706Z,2.10
2018-12-03T04:43:52.730Z,1.97
2018-12-03T04:46:23.590Z,2.00
2018-12-03T04:48:54.798Z,2.00
2018-12-03T04:51:25.352Z,1.80
2018-12-03T04:53:55.722Z,2.10
2018-12-03T04:56:27.324Z,1.70
2018-12-03T04:58:59.477Z,1.70
2018-12-03T05:01:30.743Z,1.60
2018-12-03T05:04:01.403Z,1.33
2018-12-03T05:06:31.973Z,1.50
2018-12-03T05:09:02.458Z,1.77
2018-12-03T05:11:33.338Z,1.80
2018-12-03T05:14:03.816Z,1.83
2018-12-03T05:16:34.598Z,1.40
2018-12-03T05:19:05.155Z,1.73
2018-12-03T05:21:35.711Z,1.70
2018-12-03T05:24:06.810Z,1.73
2018-12-03T05:26:37.286Z,1.70
2018-12-03T05:29:08.289Z,1.70
2018-12-03T05:31:39.214Z,1.57
2018-12-03T05:34:10.398Z,1.60
2018-12-03T05:36:41.199Z,1.87
2018-12-03T05:39:12.329Z,1.23
2018-12-03T05:41:42.711Z,1.60
2018-12-03T05:44:16.106Z,1.60
2018-12-03T05:46:46.852Z,1.60
2018-12-03T05:49:19.770Z,1.90
2018-12-03T05:51:50.571Z,1.60
2018-12-03T05:54:20.803Z,1.60
2018-12-03T05:56:51.632Z,1.40
2018-12-03T05:59:22.378Z,1.67
2018-12-03T06:01:53.117Z,1.83
2018-12-03T06:04:24.618Z,1.93
2018-12-03T06:06:55.381Z,2.00
2018-12-03T06:09:25.970Z,1.70
2018-12-03T06:11:57.210Z,1.93
2018-12-03T06:14:27.068Z,1.57
2018-12-03T06:16:58.142Z,1.77
2018-12-03T06:19:28.268Z,1.77
2018-12-03T06:22:00.393Z,1.60
2018-12-03T06:24:30.900Z,1.57
2018-12-03T06:27:07.005Z,2.40
2018-12-03T06:29:38.856Z,2.13
2018-12-03T06:32:09.699Z,2.13
2018-12-03T06:34:40.580Z,2.53
2018-12-03T06:37:11.732Z,2.00
2018-12-03T06:39:42.591Z,1.87
2018-12-03T06:42:13.299Z,2.30
2018-12-03T06:44:44.650Z,2.20
2018-12-03T06:47:16.315Z,3.17
2018-12-03T06:49:47.193Z,2.10
2018-12-03T06:52:17.674Z,2.33
2018-12-03T06:54:49.346Z,3.13
2018-12-03T06:57:20.024Z,1.83
2018-12-03T06:59:50.897Z,2.00
2018-12-03T07:02:21.690Z,1.80
2018-12-03T07:04:52.468Z,1.87
2018-12-03T07:07:24.386Z,2.60
2018-12-03T07:09:55.181Z,10.20
2018-12-03T07:12:26.580Z,3.80
2018-12-03T07:14:57.453Z,1.80
2018-12-03T07:17:28.046Z,2.00
2018-12-03T07:19:59.232Z,2.20
2018-12-03T07:22:30.665Z,2.37
2018-12-03T07:25:02.337Z,2.17
2018-12-03T07:27:32.835Z,1.70
2018-12-03T07:30:05.891Z,2.80
2018-12-03T07:32:36.363Z,5.60
2018-12-03T07:35:07.114Z,4.90
2018-12-03T07:37:37.618Z,2.27
2018-12-03T07:40:09.561Z,2.40
2018-12-03T07:42:41.053Z,2.70
2018-12-03T07:45:21.353Z,2.70
2018-12-03T07:47:52.152Z,2.20
2018-12-03T07:50:23.901Z,2.43
2018-12-03T07:52:55.247Z,2.30
2018-12-03T07:55:28.100Z,3.20
2018-12-03T07:58:08.361Z,3.37
2018-12-03T08:00:49.934Z,5.97
2018-12-03T08:03:20.148Z,3.37
2018-12-03T08:05:51.949Z,3.23
2018-12-03T08:08:23.902Z,3.50
2018-12-03T08:10:59.101Z,3.60
2018-12-03T08:13:30.368Z,3.63
2018-12-03T08:16:00.932Z,3.10
2018-12-03T08:18:34.094Z,3.17
2018-12-03T08:21:13.719Z,2.50
2018-12-03T08:24:05.982Z,2.80
2018-12-03T08:26:36.578Z,3.20
2018-12-03T08:29:08.091Z,3.43
2018-12-03T08:31:39.286Z,2.60
2018-12-03T08:34:09.795Z,3.07
2018-12-03T08:36:41.036Z,3.57
2018-12-03T08:39:13.535Z,3.90
2018-12-03T08:41:45.377Z,3.00
2018-12-03T08:44:16.370Z,3.37
2018-12-03T08:46:49.169Z,2.60
2018-12-03T08:49:19.449Z,3.40
2018-12-03T08:51:50.339Z,3.90
2018-12-03T08:54:20.857Z,5.70
2018-12-03T08:56:51.787Z,3.60
2018-12-03T08:59:22.347Z,3.67
2018-12-03T09:01:53.574Z,3.20
2018-12-03T09:04:24.564Z,3.60
2018-12-03T09:06:55.281Z,3.10
2018-12-03T09:09:26.630Z,2.87
2018-12-03T09:11:57.504Z,3.57
2018-12-03T09:14:30.889Z,6.43
2018-12-03T09:17:02.583Z,5.27
2018-12-03T09:19:32.929Z,4.43
2018-12-03T09:22:04.201Z,3.80
2018-12-03T09:24:34.953Z,3.43
2018-12-03T09:27:06.409Z,4.17
2018-12-03T09:29:36.823Z,4.00
2018-12-03T09:32:07.325Z,4.30
2018-12-03T09:34:39.311Z,3.80
2018-12-03T09:37:10.507Z,4.50
2018-12-03T09:39:41.324Z,4.10
2018-12-03T09:42:12.308Z,3.47
2018-12-03T09:44:43.192Z,4.83
2018-12-03T09:47:13.513Z,3.83
2018-12-03T09:49:44.200Z,3.90
2018-12-03T09:52:14.569Z,3.00
2018-12-03T09:54:45.842Z,4.10
2018-12-03T09:57:15.972Z,4.93
2018-12-03T09:59:46.747Z,4.40
2018-12-03T10:02:19.740Z,4.63
2018-12-03T10:04:50.989Z,6.13
2018-12-03T10:07:22.386Z,3.93
2018-12-03T10:09:53.704Z,4.80
2018-12-03T10:12:25.768Z,4.63
2018-12-03T10:14:56.536Z,4.40
2018-12-03T10:17:27.033Z,5.07
2018-12-03T10:19:57.599Z,5.20
2018-12-03T10:22:27.795Z,3.90
2018-12-03T10:24:58.380Z,3.90
2018-12-03T10:27:30.263Z,3.50
2018-12-03T10:30:03.153Z,4.67
2018-12-03T10:32:35.086Z,4.37
2018-12-03T10:35:05.410Z,3.60
2018-12-03T10:37:35.884Z,3.80
2018-12-03T10:40:09.887Z,3.47
2018-12-03T10:42:40.261Z,3.63
2018-12-03T10:45:13.810Z,4.13
2018-12-03T10:47:43.979Z,3.83
2018-12-03T10:50:22.181Z,4.33
2018-12-03T10:52:51.514Z,3.67
2018-12-03T10:55:21.940Z,4.00
2018-12-03T10:57:52.891Z,4.40
2018-12-03T11:00:40.434Z,4.30
2018-12-03T11:03:49.901Z,3.40
2018-12-03T11:06:21.980Z,3.60
2018-12-03T11:08:52.982Z,3.70
2018-12-03T11:11:23.616Z,3.37
2018-12-03T11:13:57.419Z,3.83
2018-12-03T11:16:31.714Z,3.70
2018-12-03T11:19:02.769Z,4.13
2018-12-03T11:21:33.738Z,4.03
2018-12-03T11:24:04.291Z,4.37
2018-12-03T11:26:46.253Z,3.53
2018-12-03T11:29:17.271Z,3.70
2018-12-03T11:31:48.469Z,3.83
2018-12-03T11:34:25.491Z,3.70
2018-12-03T11:37:05.500Z,4.10
2018-12-03T11:39:57.533Z,3.83
2018-12-03T11:42:32.906Z,4.00
2018-12-03T11:45:04.045Z,3.60
2018-12-03T11:47:34.440Z,3.90
2018-12-03T11:50:05.105Z,4.10
2018-12-03T11:52:35.628Z,3.80
2018-12-03T11:55:06.707Z,3.40
2018-12-03T11:57:36.775Z,4.00
2018-12-03T12:00:09.966Z,3.40
2018-12-03T12:02:40.782Z,3.27
2018-12-03T12:05:11.567Z,3.30
2018-12-03T12:07:42.594Z,4.00
2018-12-03T12:10:14.644Z,3.73
2018-12-03T12:12:45.722Z,4.00
2018-12-03T12:15:16.223Z,7.13
2018-12-03T12:17:47.125Z,3.30
2018-12-03T12:20:17.689Z,3.60
2018-12-03T12:22:48.103Z,3.63
2018-12-03T12:25:18.754Z,2.60
2018-12-03T12:27:57.555Z,3.00
2018-12-03T12:30:28.054Z,3.27
2018-12-03T12:32:58.897Z,3.47
2018-12-03T12:35:29.488Z,3.93
2018-12-03T12:37:59.671Z,3.67
2018-12-03T12:40:30.184Z,4.60
2018-12-03T12:43:01.054Z,4.10
2018-12-03T12:45:43.190Z,3.00
2018-12-03T12:48:13.622Z,3.67
2018-12-03T12:50:44.825Z,3.43
2018-12-03T12:53:15.765Z,3.10
2018-12-03T12:55:47.035Z,3.30
2018-12-03T12:58:17.328Z,3.60
2018-12-03T13:00:48.167Z,4.63
2018-12-03T13:03:18.772Z,3.27
2018-12-03T13:05:51.556Z,3.80
2018-12-03T13:08:21.959Z,3.47
2018-12-03T13:10:52.438Z,3.47
2018-12-03T13:13:23.148Z,3.70
2018-12-03T13:15:53.802Z,3.40
2018-12-03T13:18:24.237Z,3.20
2018-12-03T13:20:54.532Z,3.17
2018-12-03T13:23:24.958Z,3.27
2018-12-03T13:25:55.428Z,3.53
2018-12-03T13:28:25.509Z,2.67
2018-12-03T13:30:56.354Z,3.27
2018-12-03T13:33:27.306Z,5.80
2018-12-03T13:35:57.916Z,4.17
2018-12-03T13:38:28.340Z,3.97
2018-12-03T13:40:59.772Z,3.73
2018-12-03T13:43:30.730Z,3.40
2018-12-03T13:46:02.418Z,4.47
2018-12-03T13:48:32.889Z,3.70
2018-12-03T13:51:04.076Z,3.90
2018-12-03T13:53:34.914Z,3.10
2018-12-03T13:56:05.964Z,3.33
2018-12-03T13:58:36.333Z,2.73
2018-12-03T14:01:07.414Z,3.77
2018-12-03T14:03:38.995Z,4.00
2018-12-03T14:06:27.951Z,3.33
2018-12-03T14:09:22.709Z,3.33
2018-12-03T14:12:11.592Z,3.03
2018-12-03T14:15:26.853Z,3.20
2018-12-03T14:18:31.130Z,4.23
2018-12-03T14:21:25.268Z,3.90
2018-12-03T14:23:57.353Z,3.17
2018-12-03T14:26:27.974Z,3.40
2018-12-03T14:28:58.958Z,3.30
2018-12-03T14:31:29.622Z,3.87
2018-12-03T14:34:01.048Z,3.37
2018-12-03T14:36:32.262Z,3.23
2018-12-03T14:39:07.803Z,3.33
2018-12-03T14:41:38.385Z,3.47
2018-12-03T14:44:08.498Z,3.80
2018-12-03T14:46:39.324Z,3.10
2018-12-03T14:49:10.143Z,3.17
2018-12-03T14:51:41.007Z,2.90
2018-12-03T14:54:11.466Z,3.10
2018-12-03T14:56:44.934Z,3.60
2018-12-03T14:59:15.770Z,3.17
2018-12-03T15:01:46.290Z,3.13
2018-12-03T15:04:16.762Z,3.50
2018-12-03T15:06:49.992Z,3.93
2018-12-03T15:09:20.570Z,3.33
2018-12-03T15:11:50.784Z,3.27
2018-12-03T15:14:21.217Z,3.20
2018-12-03T15:16:51.388Z,3.23
2018-12-03T15:19:22.658Z,2.70
2018-12-03T15:21:53.881Z,2.70
2018-12-03T15:24:24.397Z,2.70
2018-12-03T15:26:54.971Z,3.10
2018-12-03T15:29:26.036Z,3.20
2018-12-03T15:31:56.615Z,3.07
2018-12-03T15:34:27.100Z,3.70
2018-12-03T15:36:57.591Z,3.60
2018-12-03T15:39:29.047Z,3.30
2018-12-03T15:41:59.220Z,3.87
2018-12-03T15:44:30.064Z,3.80
2018-12-03T15:47:01.235Z,4.27
2018-12-03T15:49:31.674Z,4.17
2018-12-03T15:52:02.117Z,3.60
2018-12-03T15:54:33.141Z,4.37
2018-12-03T15:57:04.121Z,3.90
2018-12-03T15:59:34.854Z,3.70
2018-12-03T16:02:05.389Z,3.83
2018-12-03T16:04:36.324Z,3.80
2018-12-03T16:07:08.960Z,3.77
2018-12-03T16:09:39.860Z,3.90
2018-12-03T16:12:10.371Z,3.40
2018-12-03T16:14:40.983Z,2.77
2018-12-03T16:17:11.487Z,2.30
2018-12-03T16:19:42.539Z,8.00
2018-12-03T16:22:13.136Z,3.40
2018-12-03T16:24:43.574Z,2.33
2018-12-03T16:27:14.262Z,1.73
2018-12-03T16:29:44.791Z,1.80
2018-12-03T16:32:15.740Z,7.13
2018-12-03T16:34:45.899Z,2.30
2018-12-03T16:37:17.087Z,1.80
2018-12-03T16:39:48.033Z,2.03
2018-12-03T16:42:18.663Z,2.13
2018-12-03T16:44:49.714Z,2.00
2018-12-03T16:47:20.265Z,2.47
2018-12-03T16:49:51.180Z,2.90
2018-12-03T16:52:22.547Z,1.80
2018-12-03T16:54:53.440Z,1.90
2018-12-03T16:57:23.603Z,1.60
2018-12-03T16:59:54.137Z,2.10
2018-12-03T17:02:25.061Z,1.67
2018-12-03T17:04:56.107Z,2.53
2018-12-03T17:07:27.546Z,2.70
2018-12-03T17:10:00.360Z,1.90
2018-12-03T17:12:32.021Z,2.40
2018-12-03T17:15:02.910Z,6.83
2018-12-03T17:17:34.130Z,3.60
2018-12-03T17:20:05.700Z,2.77
2018-12-03T17:23:32.037Z,2.87
2018-12-03T17:26:02.796Z,3.23
2018-12-03T17:28:33.664Z,3.50
2018-12-03T17:31:04.804Z,4.63
2018-12-03T17:33:35.415Z,4.90
2018-12-03T17:36:06.105Z,3.87
2018-12-03T17:38:36.355Z,5.70
2018-12-03T17:41:07.808Z,3.80
2018-12-03T17:43:41.092Z,4.07
2018-12-03T17:46:11.602Z,3.50
2018-12-03T17:48:42.426Z,4.53
2018-12-03T17:51:12.890Z,5.20
2018-12-03T17:53:43.787Z,4.90
2018-12-03T17:56:14.465Z,3.77
2018-12-03T17:58:44.244Z,3.40
2018-12-03T18:01:14.700Z,3.10
2018-12-03T18:03:45.216Z,6.60
2018-12-03T18:06:17.176Z,2.87
2018-12-03T18:08:48.447Z,2.67
2018-12-03T18:11:30.586Z,3.17
2018-12-03T18:14:01.503Z,3.17
2018-12-03T18:16:32.264Z,3.17
2018-12-03T18:19:02.811Z,2.73
2018-12-03T18:21:33.651Z,3.07
2018-12-03T18:24:04.045Z,3.73
2018-12-03T18:26:35.357Z,3.97
2018-12-03T18:29:22.288Z,3.20
2018-12-03T18:31:41.985Z,2.60
2018-12-03T18:34:13.063Z,2.93
2018-12-03T18:36:44.107Z,2.93
2018-12-03T18:39:15.467Z,2.57
2018-12-03T18:41:46.102Z,2.67
2018-12-03T18:44:17.707Z,3.50
2018-12-03T18:46:49.321Z,3.93
2018-12-03T18:49:26.846Z,3.30
2018-12-03T18:51:58.141Z,2.73
2018-12-03T18:54:29.176Z,2.70
2018-12-03T18:56:59.713Z,4.70
2018-12-03T18:59:30.311Z,4.47
2018-12-03T19:02:00.815Z,2.63
2018-12-03T19:04:31.839Z,3.67
2018-12-03T19:07:02.226Z,3.47
2018-12-03T19:09:34.407Z,3.03
2018-12-03T19:12:05.729Z,4.43
2018-12-03T19:14:36.259Z,3.70
2018-12-03T19:17:07.450Z,3.93
2018-12-03T19:19:38.405Z,3.57
2018-12-03T19:22:10.029Z,3.60
2018-12-03T19:24:41.050Z,3.90
2018-12-03T19:27:12.034Z,3.33
2018-12-03T19:29:43.521Z,4.43
2018-12-03T19:32:13.617Z,3.70
2018-12-03T19:34:46.792Z,4.03
2018-12-03T19:37:17.028Z,3.63
2018-12-03T19:39:47.686Z,3.90
2018-12-03T19:42:18.891Z,3.87
2018-12-03T19:44:49.718Z,3.87
2018-12-03T19:47:20.579Z,3.87
2018-12-03T19:49:52.358Z,4.13
2018-12-03T19:52:22.935Z,3.60
2018-12-03T19:54:54.783Z,4.67
2018-12-03T19:57:28.815Z,5.53
2018-12-03T20:00:01.521Z,5.30
2018-12-03T20:02:33.279Z,4.10
2018-12-03T20:05:18.976Z,4.50
2018-12-03T20:07:49.135Z,4.97
2018-12-03T20:10:19.347Z,3.70
2018-12-03T20:12:50.390Z,3.40
2018-12-03T20:15:21.029Z,4.00
2018-12-03T20:17:52.306Z,3.90
2018-12-03T20:20:27.224Z,4.03
2018-12-03T20:23:11.575Z,3.83
2018-12-03T20:25:52.627Z,4.13
2018-12-03T20:28:32.716Z,4.27
2018-12-03T20:31:37.227Z,4.23
2018-12-03T20:34:25.415Z,3.93
2018-12-03T20:37:08.003Z,5.93
2018-12-03T20:40:03.450Z,9.10
2018-12-03T20:42:37.594Z,4.30
2018-12-03T20:45:51.351Z,5.23
2018-12-03T20:48:31.977Z,6.27
2018-12-03T20:51:14.210Z,3.87
2018-12-03T20:53:47.428Z,4.90
2018-12-03T20:56:18.788Z,8.50
2018-12-03T20:58:49.059Z,3.90
2018-12-03T21:01:19.723Z,4.43
2018-12-03T21:03:50.752Z,4.90
2018-12-03T21:06:23.212Z,4.23
2018-12-03T21:08:54.511Z,4.50
2018-12-03T21:11:24.584Z,4.90
2018-12-03T21:13:55.154Z,4.70
2018-12-03T21:16:25.948Z,5.10
2018-12-03T21:18:56.808Z,4.70
2018-12-03T21:21:28.464Z,6.87
2018-12-03T21:23:59.630Z,7.00
2018-12-03T21:26:30.604Z,5.77
2018-12-03T21:29:03.325Z,10.10
2018-12-03T21:31:34.699Z,4.70
2018-12-03T21:34:05.185Z,4.30
2018-12-03T21:36:36.055Z,4.07
2018-12-03T21:39:08.762Z,4.47
2018-12-03T21:41:39.505Z,4.23
2018-12-03T21:44:10.433Z,4.00
2018-12-03T21:46:40.894Z,5.40
2018-12-03T21:49:11.853Z,4.90
2018-12-03T21:51:42.920Z,5.63
2018-12-03T21:54:13.764Z,5.10
2018-12-03T21:56:44.669Z,5.50
2018-12-03T21:59:15.525Z,5.70
2018-12-03T22:01:46.522Z,5.90
2018-12-03T22:04:17.458Z,4.47
2018-12-03T22:06:48.594Z,5.20
2018-12-03T22:09:21.602Z,4.90
2018-12-03T22:11:52.424Z,4.70
2018-12-03T22:14:27.492Z,6.83
2018-12-03T22:16:58.969Z,6.30
2018-12-03T22:19:29.417Z,6.50
2018-12-03T22:22:00.265Z,6.07
2018-12-03T22:24:30.829Z,5.90
2018-12-03T22:27:01.479Z,7.13
2018-12-03T22:29:33.338Z,5.50
2018-12-03T22:32:07.341Z,6.67
2018-12-03T22:34:39.144Z,6.33
2018-12-03T22:37:10.416Z,6.77
2018-12-03T22:39:46.227Z,6.33
2018-12-03T22:42:13.171Z,5.97
2018-12-03T22:44:44.023Z,7.10
2018-12-03T22:47:15.382Z,6.90
2018-12-03T22:49:45.923Z,7.00
2018-12-03T22:52:17.417Z,5.80
2018-12-03T22:54:48.297Z,8.07
2018-12-03T22:57:20.334Z,7.77
2018-12-03T22:59:50.109Z,6.83
2018-12-03T23:02:23.454Z,7.60
2018-12-03T23:04:53.854Z,6.77
2018-12-03T23:07:23.681Z,7.80
2018-12-03T23:09:56.578Z,7.93
2018-12-03T23:12:30.736Z,5.90
2018-12-03T23:15:01.390Z,6.87
2018-12-03T23:17:31.644Z,6.60
2018-12-03T23:20:02.920Z,6.10
2018-12-03T23:22:35.105Z,5.70
2018-12-03T23:25:06.460Z,6.73
2018-12-03T23:27:37.301Z,6.53
2018-12-03T23:30:09.233Z,6.17
2018-12-03T23:32:40.366Z,6.30
2018-12-03T23:35:10.836Z,6.80
2018-12-03T23:37:41.413Z,7.10
2018-12-03T23:40:12.077Z,5.83
2018-12-03T23:42:42.940Z,5.90
2018-12-03T23:45:15.908Z,5.27
2018-12-03T23:47:45.974Z,5.67
2018-12-03T23:50:16.630Z,5.70
2018-12-03T23:52:47.594Z,6.63
2018-12-03T23:55:19.041Z,6.10
2018-12-03T23:57:49.492Z,5.50
